This is the latest recevied weather packets stored in our database for station/object W2JBO-5. If no packets are shown the sender has not sent any weather packets the latest 10 day(s).
| Time | Temp. | Humidity | Pressure | Rain* | Wind** | Luminosity | Snow |
|---|---|---|---|---|---|---|---|
| 1777932324 | 25° C | 51% | - | 0 mm | - | - | - |
| 1777932021 | 25° C | 49% | - | 0 mm | - | - | - |
| 1777931717 | 25° C | 48% | - | 0 mm | - | - | - |
| 1777931415 | 25° C | 49% | - | 0 mm | - | - | - |
| 1777931110 | 25° C | 49% | - | 0 mm | - | - | - |
| 1777930807 | 25° C | 48% | - | 0 mm | - | - | - |
| 1777930503 | 25° C | 49% | - | 0 mm | - | - | - |
| 1777930201 | 25° C | 52% | 1014.7 hPa | 0 mm | - | 41 W/m² | - |
| 1777929896 | 25° C | 50% | 1014.7 hPa | 0 mm | - | 44 W/m² | - |
| 1777929594 | 25° C | 50% | 1014.7 hPa | 0 mm | - | 55 W/m² | - |
| 1777929290 | 25° C | 48% | 1014.7 hPa | 0 mm | - | 88 W/m² | - |
| 1777928988 | 25° C | 51% | 1014.7 hPa | 0 mm | - | 68 W/m² | - |
| 1777928684 | 25° C | 48% | 1014.7 hPa | 0 mm | - | 57 W/m² | - |
| 1777928381 | 25° C | 47% | 1014.7 hPa | 0 mm | - | 86 W/m² | - |
| 1777928079 | 25° C | 49% | 1014.7 hPa | 0 mm | - | 133 W/m² | - |
| 1777927777 | 25° C | 50% | 1014.7 hPa | 0 mm | - | 52 W/m² | - |
| 1777927475 | 25° C | 50% | 1014.7 hPa | 0 mm | - | 58 W/m² | - |
| 1777927174 | 25° C | 51% | 1014.7 hPa | 0 mm | - | 62 W/m² | - |
| 1777926871 | 25° C | 47% | 1014.7 hPa | 0 mm | - | 196 W/m² | - |
| 1777926567 | 25° C | 50% | - | 0 mm | - | - | - |
| 1777926264 | 25° C | 48% | - | 0 mm | - | - | - |
| 1777925961 | 25° C | 50% | 1015.8 hPa | 0 mm | - | 60 W/m² | - |
| 1777925658 | 25.56° C | 49% | 1015.8 hPa | 0 mm | - | 56 W/m² | - |
| 1777925355 | 25.56° C | 49% | 1015.8 hPa | 0 mm | - | 52 W/m² | - |
| 1777925052 | 25° C | 49% | 1015.8 hPa | 0 mm | - | 54 W/m² | - |
* Rain latest hour (hover to see other rain measurements)
** Current wind speed in m/s (hover to see current wind gust speed)